sensor_id;sensor_type;location;lat;lon;timestamp;P1;durP1;ratioP1;P2;durP2;ratioP2
5339;SDS011;2692;48.848;8.924;2024-03-02T00:01:57;4.43;;;2.60;;
5339;SDS011;2692;48.848;8.924;2024-03-02T00:04:23;3.77;;;2.60;;
5339;SDS011;2692;48.848;8.924;2024-03-02T00:06:50;5.57;;;2.30;;
5339;SDS011;2692;48.848;8.924;2024-03-02T00:09:17;4.07;;;2.23;;
5339;SDS011;2692;48.848;8.924;2024-03-02T00:11:43;4.87;;;2.40;;
5339;SDS011;2692;48.848;8.924;2024-03-02T00:14:08;3.30;;;2.63;;
5339;SDS011;2692;48.848;8.924;2024-03-02T00:16:34;5.00;;;2.40;;
5339;SDS011;2692;48.848;8.924;2024-03-02T00:19:02;2.50;;;1.90;;
5339;SDS011;2692;48.848;8.924;2024-03-02T00:21:29;1.50;;;1.30;;
5339;SDS011;2692;48.848;8.924;2024-03-02T00:23:56;5.33;;;2.70;;
5339;SDS011;2692;48.848;8.924;2024-03-02T00:26:21;2.87;;;2.37;;
5339;SDS011;2692;48.848;8.924;2024-03-02T00:28:46;2.90;;;2.10;;
5339;SDS011;2692;48.848;8.924;2024-03-02T00:31:13;3.43;;;2.20;;
5339;SDS011;2692;48.848;8.924;2024-03-02T00:33:43;1.63;;;1.47;;
5339;SDS011;2692;48.848;8.924;2024-03-02T00:36:09;4.77;;;1.70;;
5339;SDS011;2692;48.848;8.924;2024-03-02T00:38:42;2.30;;;2.10;;
5339;SDS011;2692;48.848;8.924;2024-03-02T00:41:11;1.77;;;1.50;;
5339;SDS011;2692;48.848;8.924;2024-03-02T00:43:56;3.20;;;2.47;;
5339;SDS011;2692;48.848;8.924;2024-03-02T00:46:22;3.40;;;2.67;;
5339;SDS011;2692;48.848;8.924;2024-03-02T00:48:51;2.70;;;2.50;;
5339;SDS011;2692;48.848;8.924;2024-03-02T00:51:19;2.73;;;2.07;;
5339;SDS011;2692;48.848;8.924;2024-03-02T00:53:45;3.03;;;2.27;;
5339;SDS011;2692;48.848;8.924;2024-03-02T00:56:11;3.47;;;2.50;;
5339;SDS011;2692;48.848;8.924;2024-03-02T00:58:37;3.57;;;2.23;;
5339;SDS011;2692;48.848;8.924;2024-03-02T01:01:02;2.77;;;2.50;;
5339;SDS011;2692;48.848;8.924;2024-03-02T01:03:28;3.23;;;2.87;;
5339;SDS011;2692;48.848;8.924;2024-03-02T01:05:53;3.10;;;2.30;;
5339;SDS011;2692;48.848;8.924;2024-03-02T01:08:18;2.73;;;2.50;;
5339;SDS011;2692;48.848;8.924;2024-03-02T01:10:44;4.50;;;3.17;;
5339;SDS011;2692;48.848;8.924;2024-03-02T01:13:09;2.87;;;2.20;;
5339;SDS011;2692;48.848;8.924;2024-03-02T01:15:34;5.00;;;3.07;;
5339;SDS011;2692;48.848;8.924;2024-03-02T01:18:00;2.33;;;1.97;;
5339;SDS011;2692;48.848;8.924;2024-03-02T01:20:25;4.50;;;2.90;;
5339;SDS011;2692;48.848;8.924;2024-03-02T01:22:50;3.10;;;2.70;;
5339;SDS011;2692;48.848;8.924;2024-03-02T01:25:16;3.17;;;2.20;;
5339;SDS011;2692;48.848;8.924;2024-03-02T01:27:41;2.60;;;2.40;;
5339;SDS011;2692;48.848;8.924;2024-03-02T01:30:06;3.50;;;2.27;;
5339;SDS011;2692;48.848;8.924;2024-03-02T01:32:32;3.97;;;3.27;;
5339;SDS011;2692;48.848;8.924;2024-03-02T01:34:57;2.93;;;2.63;;
5339;SDS011;2692;48.848;8.924;2024-03-02T01:37:23;3.17;;;2.27;;
5339;SDS011;2692;48.848;8.924;2024-03-02T01:39:48;5.63;;;3.00;;
5339;SDS011;2692;48.848;8.924;2024-03-02T01:42:13;2.80;;;2.20;;
5339;SDS011;2692;48.848;8.924;2024-03-02T01:44:39;1.70;;;1.50;;
5339;SDS011;2692;48.848;8.924;2024-03-02T01:47:05;3.20;;;2.67;;
5339;SDS011;2692;48.848;8.924;2024-03-02T01:49:30;7.80;;;4.80;;
5339;SDS011;2692;48.848;8.924;2024-03-02T01:51:55;2.67;;;1.87;;
5339;SDS011;2692;48.848;8.924;2024-03-02T01:54:21;3.23;;;2.57;;
5339;SDS011;2692;48.848;8.924;2024-03-02T01:56:46;3.47;;;2.70;;
5339;SDS011;2692;48.848;8.924;2024-03-02T01:59:11;11.70;;;3.63;;
5339;SDS011;2692;48.848;8.924;2024-03-02T02:01:38;4.70;;;2.80;;
5339;SDS011;2692;48.848;8.924;2024-03-02T02:04:04;2.63;;;1.90;;
5339;SDS011;2692;48.848;8.924;2024-03-02T02:06:31;4.40;;;2.73;;
5339;SDS011;2692;48.848;8.924;2024-03-02T02:08:56;4.80;;;3.27;;
5339;SDS011;2692;48.848;8.924;2024-03-02T02:11:22;4.87;;;3.40;;
5339;SDS011;2692;48.848;8.924;2024-03-02T02:13:47;3.33;;;2.60;;
5339;SDS011;2692;48.848;8.924;2024-03-02T02:16:12;4.50;;;2.93;;
5339;SDS011;2692;48.848;8.924;2024-03-02T02:18:38;5.60;;;2.97;;
5339;SDS011;2692;48.848;8.924;2024-03-02T02:21:03;3.73;;;3.37;;
5339;SDS011;2692;48.848;8.924;2024-03-02T02:23:28;4.13;;;3.13;;
5339;SDS011;2692;48.848;8.924;2024-03-02T02:25:54;3.50;;;2.93;;
5339;SDS011;2692;48.848;8.924;2024-03-02T02:28:19;5.47;;;3.33;;
5339;SDS011;2692;48.848;8.924;2024-03-02T02:30:44;3.93;;;3.03;;
5339;SDS011;2692;48.848;8.924;2024-03-02T02:33:10;2.03;;;1.83;;
5339;SDS011;2692;48.848;8.924;2024-03-02T02:35:35;5.80;;;3.30;;
5339;SDS011;2692;48.848;8.924;2024-03-02T02:38:00;4.13;;;3.07;;
5339;SDS011;2692;48.848;8.924;2024-03-02T02:40:27;3.53;;;2.83;;
5339;SDS011;2692;48.848;8.924;2024-03-02T02:42:55;5.73;;;2.83;;
5339;SDS011;2692;48.848;8.924;2024-03-02T02:45:20;4.67;;;2.83;;
5339;SDS011;2692;48.848;8.924;2024-03-02T02:47:46;3.40;;;2.80;;
5339;SDS011;2692;48.848;8.924;2024-03-02T02:50:11;5.80;;;2.80;;
5339;SDS011;2692;48.848;8.924;2024-03-02T02:52:37;3.33;;;2.90;;
5339;SDS011;2692;48.848;8.924;2024-03-02T02:55:05;1.60;;;1.50;;
5339;SDS011;2692;48.848;8.924;2024-03-02T02:57:32;3.00;;;2.63;;
5339;SDS011;2692;48.848;8.924;2024-03-02T03:00:01;3.83;;;2.83;;
5339;SDS011;2692;48.848;8.924;2024-03-02T03:02:30;3.00;;;2.50;;
5339;SDS011;2692;48.848;8.924;2024-03-02T03:04:55;4.90;;;3.53;;
5339;SDS011;2692;48.848;8.924;2024-03-02T03:07:22;3.30;;;2.83;;
5339;SDS011;2692;48.848;8.924;2024-03-02T03:09:47;3.50;;;2.57;;
5339;SDS011;2692;48.848;8.924;2024-03-02T03:12:13;5.53;;;3.50;;
5339;SDS011;2692;48.848;8.924;2024-03-02T03:14:39;9.60;;;3.40;;
5339;SDS011;2692;48.848;8.924;2024-03-02T03:17:05;2.80;;;2.60;;
5339;SDS011;2692;48.848;8.924;2024-03-02T03:19:32;3.40;;;2.73;;
5339;SDS011;2692;48.848;8.924;2024-03-02T03:21:57;2.10;;;1.90;;
5339;SDS011;2692;48.848;8.924;2024-03-02T03:24:22;3.97;;;3.03;;
5339;SDS011;2692;48.848;8.924;2024-03-02T03:26:47;3.80;;;2.90;;
5339;SDS011;2692;48.848;8.924;2024-03-02T03:29:13;3.10;;;2.53;;
5339;SDS011;2692;48.848;8.924;2024-03-02T03:31:38;4.33;;;3.40;;
5339;SDS011;2692;48.848;8.924;2024-03-02T03:34:03;2.80;;;2.60;;
5339;SDS011;2692;48.848;8.924;2024-03-02T03:36:28;5.40;;;3.80;;
5339;SDS011;2692;48.848;8.924;2024-03-02T03:38:54;4.87;;;3.80;;
5339;SDS011;2692;48.848;8.924;2024-03-02T03:41:19;4.93;;;3.60;;
5339;SDS011;2692;48.848;8.924;2024-03-02T03:43:44;5.00;;;3.43;;
5339;SDS011;2692;48.848;8.924;2024-03-02T03:46:09;3.90;;;2.83;;
5339;SDS011;2692;48.848;8.924;2024-03-02T03:48:35;4.90;;;3.40;;
5339;SDS011;2692;48.848;8.924;2024-03-02T03:51:00;5.27;;;2.87;;
5339;SDS011;2692;48.848;8.924;2024-03-02T03:53:25;4.77;;;3.70;;
5339;SDS011;2692;48.848;8.924;2024-03-02T03:55:51;4.23;;;3.03;;
5339;SDS011;2692;48.848;8.924;2024-03-02T03:58:16;3.70;;;2.97;;
5339;SDS011;2692;48.848;8.924;2024-03-02T04:00:43;4.97;;;3.10;;
5339;SDS011;2692;48.848;8.924;2024-03-02T04:03:09;4.37;;;3.07;;
5339;SDS011;2692;48.848;8.924;2024-03-02T04:05:34;3.70;;;2.97;;
5339;SDS011;2692;48.848;8.924;2024-03-02T04:07:59;3.57;;;2.80;;
5339;SDS011;2692;48.848;8.924;2024-03-02T04:10:25;4.67;;;3.20;;
5339;SDS011;2692;48.848;8.924;2024-03-02T04:12:50;2.57;;;2.30;;
5339;SDS011;2692;48.848;8.924;2024-03-02T04:15:16;5.73;;;3.27;;
5339;SDS011;2692;48.848;8.924;2024-03-02T04:17:41;4.10;;;3.27;;
5339;SDS011;2692;48.848;8.924;2024-03-02T04:20:06;3.90;;;3.00;;
5339;SDS011;2692;48.848;8.924;2024-03-02T04:22:32;4.10;;;3.03;;
5339;SDS011;2692;48.848;8.924;2024-03-02T04:24:59;3.90;;;3.13;;
5339;SDS011;2692;48.848;8.924;2024-03-02T04:27:24;3.80;;;3.27;;
5339;SDS011;2692;48.848;8.924;2024-03-02T04:29:49;4.80;;;3.90;;
5339;SDS011;2692;48.848;8.924;2024-03-02T04:32:14;3.73;;;3.33;;
5339;SDS011;2692;48.848;8.924;2024-03-02T04:34:40;3.70;;;3.17;;
5339;SDS011;2692;48.848;8.924;2024-03-02T04:37:05;5.37;;;3.67;;
5339;SDS011;2692;48.848;8.924;2024-03-02T04:39:31;3.33;;;3.03;;
5339;SDS011;2692;48.848;8.924;2024-03-02T04:41:56;4.57;;;3.40;;
5339;SDS011;2692;48.848;8.924;2024-03-02T04:44:21;4.80;;;3.77;;
5339;SDS011;2692;48.848;8.924;2024-03-02T04:46:46;2.83;;;2.27;;
5339;SDS011;2692;48.848;8.924;2024-03-02T04:49:12;4.20;;;3.50;;
5339;SDS011;2692;48.848;8.924;2024-03-02T04:51:37;5.00;;;3.27;;
5339;SDS011;2692;48.848;8.924;2024-03-02T04:54:02;5.13;;;3.90;;
5339;SDS011;2692;48.848;8.924;2024-03-02T04:56:28;4.83;;;2.87;;
5339;SDS011;2692;48.848;8.924;2024-03-02T04:58:56;4.40;;;3.80;;
5339;SDS011;2692;48.848;8.924;2024-03-02T05:01:21;4.23;;;3.60;;
5339;SDS011;2692;48.848;8.924;2024-03-02T05:03:46;4.30;;;3.90;;
5339;SDS011;2692;48.848;8.924;2024-03-02T05:06:12;8.50;;;4.50;;
5339;SDS011;2692;48.848;8.924;2024-03-02T05:08:37;6.80;;;4.70;;
5339;SDS011;2692;48.848;8.924;2024-03-02T05:11:02;10.23;;;4.07;;
5339;SDS011;2692;48.848;8.924;2024-03-02T05:13:47;6.43;;;3.73;;
5339;SDS011;2692;48.848;8.924;2024-03-02T05:16:13;5.10;;;3.30;;
5339;SDS011;2692;48.848;8.924;2024-03-02T05:18:38;5.93;;;4.13;;
5339;SDS011;2692;48.848;8.924;2024-03-02T05:21:04;9.23;;;3.67;;
5339;SDS011;2692;48.848;8.924;2024-03-02T05:23:29;4.50;;;3.90;;
5339;SDS011;2692;48.848;8.924;2024-03-02T05:25:54;6.77;;;4.27;;
5339;SDS011;2692;48.848;8.924;2024-03-02T05:28:20;5.87;;;3.40;;
5339;SDS011;2692;48.848;8.924;2024-03-02T05:30:45;4.77;;;3.63;;
5339;SDS011;2692;48.848;8.924;2024-03-02T05:33:11;3.27;;;2.97;;
5339;SDS011;2692;48.848;8.924;2024-03-02T05:35:36;4.13;;;3.60;;
5339;SDS011;2692;48.848;8.924;2024-03-02T05:38:01;4.73;;;3.37;;
5339;SDS011;2692;48.848;8.924;2024-03-02T05:40:27;4.03;;;3.37;;
5339;SDS011;2692;48.848;8.924;2024-03-02T05:42:52;3.50;;;3.20;;
5339;SDS011;2692;48.848;8.924;2024-03-02T05:45:17;4.13;;;3.17;;
5339;SDS011;2692;48.848;8.924;2024-03-02T05:47:43;3.93;;;3.00;;
5339;SDS011;2692;48.848;8.924;2024-03-02T05:50:08;2.93;;;2.20;;
5339;SDS011;2692;48.848;8.924;2024-03-02T05:52:33;4.83;;;3.40;;
5339;SDS011;2692;48.848;8.924;2024-03-02T05:54:59;4.57;;;3.80;;
5339;SDS011;2692;48.848;8.924;2024-03-02T05:57:24;4.63;;;3.17;;
5339;SDS011;2692;48.848;8.924;2024-03-02T06:00:04;3.10;;;2.60;;
5339;SDS011;2692;48.848;8.924;2024-03-02T06:02:32;3.60;;;2.87;;
5339;SDS011;2692;48.848;8.924;2024-03-02T06:04:58;4.27;;;3.47;;
5339;SDS011;2692;48.848;8.924;2024-03-02T06:07:23;7.40;;;4.07;;
5339;SDS011;2692;48.848;8.924;2024-03-02T06:09:48;5.73;;;3.80;;
5339;SDS011;2692;48.848;8.924;2024-03-02T06:12:16;3.63;;;3.27;;
5339;SDS011;2692;48.848;8.924;2024-03-02T06:14:41;4.67;;;3.60;;
5339;SDS011;2692;48.848;8.924;2024-03-02T06:17:06;3.87;;;3.20;;
5339;SDS011;2692;48.848;8.924;2024-03-02T06:19:32;3.13;;;2.83;;
5339;SDS011;2692;48.848;8.924;2024-03-02T06:21:57;3.00;;;2.70;;
5339;SDS011;2692;48.848;8.924;2024-03-02T06:24:22;3.50;;;3.20;;
5339;SDS011;2692;48.848;8.924;2024-03-02T06:26:47;5.00;;;3.73;;
5339;SDS011;2692;48.848;8.924;2024-03-02T06:29:13;3.43;;;3.07;;
5339;SDS011;2692;48.848;8.924;2024-03-02T06:31:38;9.07;;;4.90;;
5339;SDS011;2692;48.848;8.924;2024-03-02T06:34:03;6.40;;;3.63;;
5339;SDS011;2692;48.848;8.924;2024-03-02T06:36:29;4.17;;;3.53;;
5339;SDS011;2692;48.848;8.924;2024-03-02T06:38:55;3.73;;;3.20;;
5339;SDS011;2692;48.848;8.924;2024-03-02T06:41:20;5.63;;;4.27;;
5339;SDS011;2692;48.848;8.924;2024-03-02T06:43:45;3.80;;;2.87;;
5339;SDS011;2692;48.848;8.924;2024-03-02T06:46:10;7.57;;;3.83;;
5339;SDS011;2692;48.848;8.924;2024-03-02T06:48:39;15.80;;;4.10;;
5339;SDS011;2692;48.848;8.924;2024-03-02T06:51:04;3.93;;;3.40;;
5339;SDS011;2692;48.848;8.924;2024-03-02T06:53:30;6.73;;;3.70;;
5339;SDS011;2692;48.848;8.924;2024-03-02T06:55:56;6.10;;;4.40;;
5339;SDS011;2692;48.848;8.924;2024-03-02T06:58:22;4.30;;;3.20;;
5339;SDS011;2692;48.848;8.924;2024-03-02T07:00:47;4.63;;;2.73;;
5339;SDS011;2692;48.848;8.924;2024-03-02T07:03:16;4.47;;;3.37;;
5339;SDS011;2692;48.848;8.924;2024-03-02T07:05:41;3.90;;;2.83;;
5339;SDS011;2692;48.848;8.924;2024-03-02T07:08:07;6.30;;;4.43;;
5339;SDS011;2692;48.848;8.924;2024-03-02T07:10:32;2.97;;;2.67;;
5339;SDS011;2692;48.848;8.924;2024-03-02T07:12:58;3.33;;;2.70;;
5339;SDS011;2692;48.848;8.924;2024-03-02T07:15:23;3.10;;;2.50;;
5339;SDS011;2692;48.848;8.924;2024-03-02T07:17:48;2.60;;;2.40;;
5339;SDS011;2692;48.848;8.924;2024-03-02T07:20:14;3.60;;;3.23;;
5339;SDS011;2692;48.848;8.924;2024-03-02T07:22:39;19.60;;;11.43;;
5339;SDS011;2692;48.848;8.924;2024-03-02T07:25:04;24.47;;;11.90;;
5339;SDS011;2692;48.848;8.924;2024-03-02T07:27:32;6.80;;;3.60;;
5339;SDS011;2692;48.848;8.924;2024-03-02T07:29:58;8.43;;;6.10;;
5339;SDS011;2692;48.848;8.924;2024-03-02T07:32:23;7.73;;;6.13;;
5339;SDS011;2692;48.848;8.924;2024-03-02T07:34:49;18.30;;;9.40;;
5339;SDS011;2692;48.848;8.924;2024-03-02T07:37:15;5.00;;;4.10;;
5339;SDS011;2692;48.848;8.924;2024-03-02T07:39:41;7.50;;;5.30;;
5339;SDS011;2692;48.848;8.924;2024-03-02T07:42:06;7.20;;;3.23;;
5339;SDS011;2692;48.848;8.924;2024-03-02T07:44:31;2.87;;;2.57;;
5339;SDS011;2692;48.848;8.924;2024-03-02T07:46:57;8.73;;;4.27;;
5339;SDS011;2692;48.848;8.924;2024-03-02T07:49:22;8.00;;;4.27;;
5339;SDS011;2692;48.848;8.924;2024-03-02T07:51:47;7.40;;;4.53;;
5339;SDS011;2692;48.848;8.924;2024-03-02T07:54:13;6.27;;;4.57;;
5339;SDS011;2692;48.848;8.924;2024-03-02T07:56:38;5.17;;;4.23;;
5339;SDS011;2692;48.848;8.924;2024-03-02T07:59:03;7.77;;;4.37;;
5339;SDS011;2692;48.848;8.924;2024-03-02T08:01:32;7.73;;;3.87;;
5339;SDS011;2692;48.848;8.924;2024-03-02T08:03:57;3.17;;;2.83;;
5339;SDS011;2692;48.848;8.924;2024-03-02T08:06:24;4.47;;;3.77;;
5339;SDS011;2692;48.848;8.924;2024-03-02T08:08:52;3.43;;;3.00;;
5339;SDS011;2692;48.848;8.924;2024-03-02T08:11:18;4.07;;;3.27;;
5339;SDS011;2692;48.848;8.924;2024-03-02T08:13:43;3.73;;;2.87;;
5339;SDS011;2692;48.848;8.924;2024-03-02T08:16:08;7.07;;;3.57;;
5339;SDS011;2692;48.848;8.924;2024-03-02T08:18:34;5.03;;;3.90;;
5339;SDS011;2692;48.848;8.924;2024-03-02T08:20:59;3.87;;;2.80;;
5339;SDS011;2692;48.848;8.924;2024-03-02T08:23:25;6.63;;;4.87;;
5339;SDS011;2692;48.848;8.924;2024-03-02T08:25:50;4.30;;;3.07;;
5339;SDS011;2692;48.848;8.924;2024-03-02T08:28:15;6.27;;;3.83;;
5339;SDS011;2692;48.848;8.924;2024-03-02T08:30:41;4.00;;;2.90;;
5339;SDS011;2692;48.848;8.924;2024-03-02T08:33:06;11.33;;;4.23;;
5339;SDS011;2692;48.848;8.924;2024-03-02T08:35:31;5.27;;;3.60;;
5339;SDS011;2692;48.848;8.924;2024-03-02T08:38:01;5.20;;;3.57;;
5339;SDS011;2692;48.848;8.924;2024-03-02T08:40:27;6.10;;;3.60;;
5339;SDS011;2692;48.848;8.924;2024-03-02T08:42:52;6.13;;;3.77;;
5339;SDS011;2692;48.848;8.924;2024-03-02T08:45:17;4.70;;;2.87;;
5339;SDS011;2692;48.848;8.924;2024-03-02T08:47:45;4.27;;;3.20;;
5339;SDS011;2692;48.848;8.924;2024-03-02T08:50:10;5.87;;;3.30;;
5339;SDS011;2692;48.848;8.924;2024-03-02T08:52:35;7.40;;;3.17;;
5339;SDS011;2692;48.848;8.924;2024-03-02T08:55:01;4.40;;;2.83;;
5339;SDS011;2692;48.848;8.924;2024-03-02T08:57:27;5.73;;;2.93;;
5339;SDS011;2692;48.848;8.924;2024-03-02T08:59:52;5.70;;;3.30;;
5339;SDS011;2692;48.848;8.924;2024-03-02T09:02:17;5.03;;;2.80;;
5339;SDS011;2692;48.848;8.924;2024-03-02T09:04:43;4.00;;;2.70;;
5339;SDS011;2692;48.848;8.924;2024-03-02T09:07:08;3.20;;;1.93;;
5339;SDS011;2692;48.848;8.924;2024-03-02T09:09:33;6.27;;;2.97;;
5339;SDS011;2692;48.848;8.924;2024-03-02T09:11:58;5.30;;;3.10;;
5339;SDS011;2692;48.848;8.924;2024-03-02T09:14:24;5.60;;;2.73;;
5339;SDS011;2692;48.848;8.924;2024-03-02T09:16:49;6.83;;;3.00;;
5339;SDS011;2692;48.848;8.924;2024-03-02T09:19:14;6.50;;;3.20;;
5339;SDS011;2692;48.848;8.924;2024-03-02T09:21:41;4.50;;;3.30;;
5339;SDS011;2692;48.848;8.924;2024-03-02T09:24:07;6.83;;;2.63;;
5339;SDS011;2692;48.848;8.924;2024-03-02T09:26:32;3.57;;;2.60;;
5339;SDS011;2692;48.848;8.924;2024-03-02T09:28:57;3.50;;;2.50;;
5339;SDS011;2692;48.848;8.924;2024-03-02T09:31:22;4.97;;;2.70;;
5339;SDS011;2692;48.848;8.924;2024-03-02T09:33:48;3.13;;;2.37;;
5339;SDS011;2692;48.848;8.924;2024-03-02T09:36:17;4.30;;;2.73;;
5339;SDS011;2692;48.848;8.924;2024-03-02T09:38:45;4.03;;;2.00;;
5339;SDS011;2692;48.848;8.924;2024-03-02T09:41:10;5.50;;;2.47;;
5339;SDS011;2692;48.848;8.924;2024-03-02T09:43:36;4.43;;;2.53;;
5339;SDS011;2692;48.848;8.924;2024-03-02T09:46:03;5.57;;;2.37;;
5339;SDS011;2692;48.848;8.924;2024-03-02T09:48:28;3.73;;;2.30;;
5339;SDS011;2692;48.848;8.924;2024-03-02T09:50:54;3.37;;;2.00;;
5339;SDS011;2692;48.848;8.924;2024-03-02T09:53:19;5.67;;;2.33;;
5339;SDS011;2692;48.848;8.924;2024-03-02T09:55:48;7.37;;;2.37;;
5339;SDS011;2692;48.848;8.924;2024-03-02T09:58:13;3.80;;;1.97;;
5339;SDS011;2692;48.848;8.924;2024-03-02T10:00:38;6.43;;;2.07;;
5339;SDS011;2692;48.848;8.924;2024-03-02T10:03:04;3.97;;;1.60;;
5339;SDS011;2692;48.848;8.924;2024-03-02T10:05:30;3.83;;;2.23;;
5339;SDS011;2692;48.848;8.924;2024-03-02T10:08:02;2.97;;;1.70;;
5339;SDS011;2692;48.848;8.924;2024-03-02T10:10:34;3.73;;;2.03;;
5339;SDS011;2692;48.848;8.924;2024-03-02T10:13:08;4.30;;;2.17;;
5339;SDS011;2692;48.848;8.924;2024-03-02T10:15:37;4.70;;;2.37;;
5339;SDS011;2692;48.848;8.924;2024-03-02T10:18:05;5.10;;;2.43;;
5339;SDS011;2692;48.848;8.924;2024-03-02T10:20:33;4.73;;;2.77;;
5339;SDS011;2692;48.848;8.924;2024-03-02T10:23:13;5.07;;;2.27;;
5339;SDS011;2692;48.848;8.924;2024-03-02T10:25:39;3.70;;;2.23;;
5339;SDS011;2692;48.848;8.924;2024-03-02T10:28:05;6.20;;;2.07;;
5339;SDS011;2692;48.848;8.924;2024-03-02T10:30:31;4.50;;;2.00;;
5339;SDS011;2692;48.848;8.924;2024-03-02T10:32:56;4.00;;;2.23;;
5339;SDS011;2692;48.848;8.924;2024-03-02T10:35:22;4.53;;;2.30;;
5339;SDS011;2692;48.848;8.924;2024-03-02T10:37:48;3.97;;;1.97;;
5339;SDS011;2692;48.848;8.924;2024-03-02T10:40:14;3.20;;;2.00;;
5339;SDS011;2692;48.848;8.924;2024-03-02T10:42:39;4.47;;;2.10;;
5339;SDS011;2692;48.848;8.924;2024-03-02T10:45:06;7.60;;;1.80;;
5339;SDS011;2692;48.848;8.924;2024-03-02T10:47:33;5.60;;;2.73;;
5339;SDS011;2692;48.848;8.924;2024-03-02T10:49:59;5.30;;;1.77;;
5339;SDS011;2692;48.848;8.924;2024-03-02T10:52:24;3.67;;;1.80;;
5339;SDS011;2692;48.848;8.924;2024-03-02T10:54:50;2.77;;;0.90;;
5339;SDS011;2692;48.848;8.924;2024-03-02T10:57:15;2.43;;;1.23;;
5339;SDS011;2692;48.848;8.924;2024-03-02T10:59:46;3.27;;;1.57;;
5339;SDS011;2692;48.848;8.924;2024-03-02T11:02:17;2.10;;;1.23;;
5339;SDS011;2692;48.848;8.924;2024-03-02T11:04:42;2.67;;;1.10;;
5339;SDS011;2692;48.848;8.924;2024-03-02T11:07:10;2.47;;;1.20;;
5339;SDS011;2692;48.848;8.924;2024-03-02T11:09:37;1.50;;;0.80;;
5339;SDS011;2692;48.848;8.924;2024-03-02T11:12:19;2.23;;;1.07;;
5339;SDS011;2692;48.848;8.924;2024-03-02T11:14:45;3.43;;;1.30;;
5339;SDS011;2692;48.848;8.924;2024-03-02T11:17:11;1.73;;;0.70;;
5339;SDS011;2692;48.848;8.924;2024-03-02T11:19:38;2.97;;;0.97;;
5339;SDS011;2692;48.848;8.924;2024-03-02T11:22:03;1.30;;;0.50;;
5339;SDS011;2692;48.848;8.924;2024-03-02T11:24:30;2.20;;;0.93;;
5339;SDS011;2692;48.848;8.924;2024-03-02T11:26:59;1.60;;;0.60;;
5339;SDS011;2692;48.848;8.924;2024-03-02T11:32:00;1.40;;;0.60;;
5339;SDS011;2692;48.848;8.924;2024-03-02T11:34:35;1.40;;;0.60;;
5339;SDS011;2692;48.848;8.924;2024-03-02T11:37:01;1.80;;;0.60;;
5339;SDS011;2692;48.848;8.924;2024-03-02T11:39:27;1.97;;;1.00;;
5339;SDS011;2692;48.848;8.924;2024-03-02T11:41:53;1.53;;;0.53;;
5339;SDS011;2692;48.848;8.924;2024-03-02T11:44:19;1.00;;;0.40;;
5339;SDS011;2692;48.848;8.924;2024-03-02T11:46:45;1.17;;;0.50;;
5339;SDS011;2692;48.848;8.924;2024-03-02T11:49:15;1.33;;;0.50;;
5339;SDS011;2692;48.848;8.924;2024-03-02T11:51:49;1.60;;;0.60;;
5339;SDS011;2692;48.848;8.924;2024-03-02T11:54:18;1.83;;;0.50;;
5339;SDS011;2692;48.848;8.924;2024-03-02T11:56:43;1.20;;;0.47;;
5339;SDS011;2692;48.848;8.924;2024-03-02T11:59:09;1.13;;;0.40;;
5339;SDS011;2692;48.848;8.924;2024-03-02T12:01:34;1.20;;;0.40;;
5339;SDS011;2692;48.848;8.924;2024-03-02T12:04:00;1.40;;;0.50;;
5339;SDS011;2692;48.848;8.924;2024-03-02T12:06:25;1.80;;;0.50;;
5339;SDS011;2692;48.848;8.924;2024-03-02T12:08:52;1.23;;;0.47;;
5339;SDS011;2692;48.848;8.924;2024-03-02T12:11:18;1.20;;;0.50;;
5339;SDS011;2692;48.848;8.924;2024-03-02T12:13:51;1.40;;;0.63;;
5339;SDS011;2692;48.848;8.924;2024-03-02T12:16:23;1.60;;;0.50;;
5339;SDS011;2692;48.848;8.924;2024-03-02T12:18:49;1.20;;;0.43;;
5339;SDS011;2692;48.848;8.924;2024-03-02T12:21:14;1.30;;;0.40;;
5339;SDS011;2692;48.848;8.924;2024-03-02T12:23:40;1.37;;;0.60;;
5339;SDS011;2692;48.848;8.924;2024-03-02T12:26:05;2.60;;;0.80;;
5339;SDS011;2692;48.848;8.924;2024-03-02T12:28:31;1.63;;;0.40;;
5339;SDS011;2692;48.848;8.924;2024-03-02T12:30:57;1.10;;;0.40;;
5339;SDS011;2692;48.848;8.924;2024-03-02T12:33:22;1.37;;;0.50;;
5339;SDS011;2692;48.848;8.924;2024-03-02T12:35:48;1.73;;;0.60;;
5339;SDS011;2692;48.848;8.924;2024-03-02T12:38:14;1.00;;;0.40;;
5339;SDS011;2692;48.848;8.924;2024-03-02T12:40:39;1.40;;;0.50;;
5339;SDS011;2692;48.848;8.924;2024-03-02T12:43:05;1.10;;;0.40;;
5339;SDS011;2692;48.848;8.924;2024-03-02T12:45:30;1.00;;;0.40;;
5339;SDS011;2692;48.848;8.924;2024-03-02T12:47:56;2.10;;;0.50;;
5339;SDS011;2692;48.848;8.924;2024-03-02T12:50:21;1.43;;;0.53;;
5339;SDS011;2692;48.848;8.924;2024-03-02T12:52:53;1.20;;;0.40;;
5339;SDS011;2692;48.848;8.924;2024-03-02T12:55:19;1.00;;;0.40;;
5339;SDS011;2692;48.848;8.924;2024-03-02T12:57:46;1.20;;;0.50;;
5339;SDS011;2692;48.848;8.924;2024-03-02T13:00:11;1.27;;;0.50;;
5339;SDS011;2692;48.848;8.924;2024-03-02T13:02:39;2.87;;;0.70;;
5339;SDS011;2692;48.848;8.924;2024-03-02T13:05:06;1.30;;;0.50;;
5339;SDS011;2692;48.848;8.924;2024-03-02T13:07:36;1.20;;;0.47;;
5339;SDS011;2692;48.848;8.924;2024-03-02T13:10:01;1.83;;;0.70;;
5339;SDS011;2692;48.848;8.924;2024-03-02T13:12:27;1.30;;;0.60;;
5339;SDS011;2692;48.848;8.924;2024-03-02T13:14:53;1.47;;;0.70;;
5339;SDS011;2692;48.848;8.924;2024-03-02T13:17:19;1.47;;;0.47;;
5339;SDS011;2692;48.848;8.924;2024-03-02T13:19:51;1.40;;;0.60;;
5339;SDS011;2692;48.848;8.924;2024-03-02T13:22:23;1.93;;;0.60;;
5339;SDS011;2692;48.848;8.924;2024-03-02T13:24:49;5.73;;;0.40;;
5339;SDS011;2692;48.848;8.924;2024-03-02T13:27:15;3.30;;;0.80;;
5339;SDS011;2692;48.848;8.924;2024-03-02T13:29:41;1.40;;;0.53;;
5339;SDS011;2692;48.848;8.924;2024-03-02T13:32:07;1.77;;;0.80;;
5339;SDS011;2692;48.848;8.924;2024-03-02T13:34:32;1.27;;;0.50;;
5339;SDS011;2692;48.848;8.924;2024-03-02T13:36:57;1.97;;;0.90;;
5339;SDS011;2692;48.848;8.924;2024-03-02T13:39:23;4.37;;;1.60;;
5339;SDS011;2692;48.848;8.924;2024-03-02T13:41:48;1.30;;;0.70;;
5339;SDS011;2692;48.848;8.924;2024-03-02T13:44:18;3.73;;;1.37;;
5339;SDS011;2692;48.848;8.924;2024-03-02T13:46:44;2.63;;;1.03;;
5339;SDS011;2692;48.848;8.924;2024-03-02T13:49:10;1.57;;;0.77;;
5339;SDS011;2692;48.848;8.924;2024-03-02T13:51:36;1.97;;;0.60;;
5339;SDS011;2692;48.848;8.924;2024-03-02T13:54:01;2.57;;;0.50;;
5339;SDS011;2692;48.848;8.924;2024-03-02T13:56:28;1.00;;;0.40;;
5339;SDS011;2692;48.848;8.924;2024-03-02T13:58:53;1.73;;;0.63;;
5339;SDS011;2692;48.848;8.924;2024-03-02T14:01:19;1.30;;;0.50;;
5339;SDS011;2692;48.848;8.924;2024-03-02T14:03:44;1.20;;;0.40;;
5339;SDS011;2692;48.848;8.924;2024-03-02T14:06:11;1.83;;;0.50;;
5339;SDS011;2692;48.848;8.924;2024-03-02T14:08:36;3.10;;;0.80;;
5339;SDS011;2692;48.848;8.924;2024-03-02T14:11:01;1.20;;;0.70;;
5339;SDS011;2692;48.848;8.924;2024-03-02T14:13:27;1.50;;;0.60;;
5339;SDS011;2692;48.848;8.924;2024-03-02T14:15:52;1.10;;;0.50;;
5339;SDS011;2692;48.848;8.924;2024-03-02T14:18:18;1.13;;;0.50;;
5339;SDS011;2692;48.848;8.924;2024-03-02T14:20:43;2.67;;;0.60;;
5339;SDS011;2692;48.848;8.924;2024-03-02T14:23:08;1.83;;;0.50;;
5339;SDS011;2692;48.848;8.924;2024-03-02T14:25:35;1.60;;;0.50;;
5339;SDS011;2692;48.848;8.924;2024-03-02T14:28:00;1.93;;;0.73;;
5339;SDS011;2692;48.848;8.924;2024-03-02T14:30:25;1.30;;;0.50;;
5339;SDS011;2692;48.848;8.924;2024-03-02T14:32:51;2.10;;;0.53;;
5339;SDS011;2692;48.848;8.924;2024-03-02T14:35:16;1.20;;;0.50;;
5339;SDS011;2692;48.848;8.924;2024-03-02T14:37:42;1.67;;;0.73;;
5339;SDS011;2692;48.848;8.924;2024-03-02T14:40:07;1.30;;;0.40;;
5339;SDS011;2692;48.848;8.924;2024-03-02T14:42:34;1.33;;;0.50;;
5339;SDS011;2692;48.848;8.924;2024-03-02T14:45:00;2.70;;;0.50;;
5339;SDS011;2692;48.848;8.924;2024-03-02T14:47:25;1.53;;;0.50;;
5339;SDS011;2692;48.848;8.924;2024-03-02T14:49:50;1.20;;;0.43;;
5339;SDS011;2692;48.848;8.924;2024-03-02T14:52:16;1.40;;;0.50;;
5339;SDS011;2692;48.848;8.924;2024-03-02T14:54:43;1.30;;;0.50;;
5339;SDS011;2692;48.848;8.924;2024-03-02T14:57:09;1.20;;;0.60;;
5339;SDS011;2692;48.848;8.924;2024-03-02T14:59:35;1.20;;;0.50;;
5339;SDS011;2692;48.848;8.924;2024-03-02T15:02:00;1.47;;;0.50;;
5339;SDS011;2692;48.848;8.924;2024-03-02T15:04:25;1.30;;;0.50;;
5339;SDS011;2692;48.848;8.924;2024-03-02T15:06:51;1.60;;;0.50;;
5339;SDS011;2692;48.848;8.924;2024-03-02T15:09:17;2.63;;;0.63;;
5339;SDS011;2692;48.848;8.924;2024-03-02T15:11:46;2.03;;;0.60;;